Platteville, WI

10:56 AM CST on December 18, 2014 (GMT -0600)
Dubuque Regional | Change Station
CLOSE
Current Station
Airport
Location: Dubuque,
Elevation: 1079 ft
Nearby Weather Stations

Elev 1079 ft 42.40 °N, 90.70 °W | Updated 3 minutes ago

Clear
Clear
21 °F
Feels Like 16 °F
N
4
Wind Variable Wind from NW

Today
High -- | Low -- °F
--% Chance of Precip.
Yesterday
High -- | Low -- °F
Precip. -- in
7:27 AM 4:29 PM
Waning Crescent, 13% visible
Pressure 30.34 in
Visibility 10.0 miles
Clouds Scattered Clouds 1200 ft
Windchill 16 °F
Dew Point 16 °F
Humidity 81%
Rainfall 0.00 in
Snow Depth Not available.
UV 1 out of 12
Pollen .10 out of 12
Air Quality Not available.
Flu Activity Not available.
METAR KDBQ 181653Z 32003KT 10SM SCT012 M06/M09 A3028 RMK AO2 SLP273 T10611089

More Conditions Fewer Conditions

Pressure 30.34 in
Visibility 10.0 miles
Clouds Scattered Clouds 1200 ft
Windchill 16 °F
Dew Point 16 °F
Humidity 81%
Rainfall 0.00 in
Snow Depth Not available.
UV 1 out of 12
Pollen .10 out of 12
Air Quality Not available.
Flu Activity Not available.
METAR KDBQ 181653Z 32003KT 10SM SCT012 M06/M09 A3028 RMK AO2 SLP273 T10611089

More Conditions Fewer Conditions

10-Day Weather Forecast

Almanac

Astronomy

Dec. 18, 2014 Rise Set
Actual Time
Civil Twilight
Nautical Twilight
Astronomical Twilight
Moon
Length of Visible Light
Length of Day
Tomorrow will be .
, % of the Moon is Illuminated

Today's Extremes

State Highs State Lows

Community

WunderPhotos

Upload Photos

1,778,960 photos uploaded!

WunderBlogs® & News

Nearby

Air Quality

  Air Quality AQ Index Pollutant
Not available.

Snow Depth

Station Depth Elevation

Earthquake Activity

City Distance Mag. Time & Date
Minimum magnitude displayed is 2.5.

Coastal Water Temperatures

Place Temperature

Nearby Weather Stations